createdAt,value
2022-11-13T00:00:02.231Z,98071.31
2022-11-13T00:02:28.639Z,98070.47
2022-11-13T00:04:55.098Z,98074.97
2022-11-13T00:07:21.630Z,98077.47
2022-11-13T00:09:48.121Z,98075.31
2022-11-13T00:12:14.815Z,98073.66
2022-11-13T00:14:41.655Z,98070.31
2022-11-13T00:17:07.975Z,98069.44
2022-11-13T00:19:34.276Z,98060.69
2022-11-13T00:22:00.672Z,98059.50
2022-11-13T00:24:27.159Z,98066.25
2022-11-13T00:26:53.469Z,98056.63
2022-11-13T00:29:19.815Z,98058.56
2022-11-13T00:31:46.231Z,98061.44
2022-11-13T00:34:45.871Z,98047.44
2022-11-13T00:36:58.964Z,98057.50
2022-11-13T00:39:25.274Z,98050.44
2022-11-13T00:41:51.583Z,98052.38
2022-11-13T00:44:17.934Z,98053.38
2022-11-13T00:46:44.302Z,98049.72
2022-11-13T00:49:10.731Z,98047.03
2022-11-13T00:51:37.071Z,98043.03
2022-11-13T00:54:03.554Z,98043.59
2022-11-13T00:56:29.967Z,98044.31
2022-11-13T00:58:56.318Z,98044.22
2022-11-13T01:01:22.758Z,98048.56
2022-11-13T01:03:49.351Z,98043.13
2022-11-13T01:06:22.627Z,98041.78
2022-11-13T01:08:49.381Z,98044.84
2022-11-13T01:11:17.416Z,98041.84
2022-11-13T01:13:44.335Z,98043.53
2022-11-13T01:16:11.491Z,98038.88
2022-11-13T01:18:38.062Z,98033.59
2022-11-13T01:21:05.914Z,98042.97
2022-11-13T01:23:32.496Z,98037.09
2022-11-13T01:26:16.692Z,98029.63
2022-11-13T01:28:43.473Z,98031.81
2022-11-13T01:31:11.252Z,98034.22
2022-11-13T01:33:37.920Z,98031.53
2022-11-13T01:36:06.141Z,98031.09
2022-11-13T01:38:36.166Z,98028.31
2022-11-13T01:41:03.847Z,98019.81
2022-11-13T01:43:32.145Z,98016.59
2022-11-13T01:45:58.561Z,98021.75
2022-11-13T01:48:38.774Z,98015.69
2022-11-13T01:51:09.282Z,98017.75
2022-11-13T01:53:36.087Z,98019.72
2022-11-13T01:56:02.520Z,98011.31
2022-11-13T01:58:29.242Z,98011.75
2022-11-13T02:00:55.789Z,98006.50
2022-11-13T02:03:22.112Z,98003.19
2022-11-13T02:05:48.479Z,97998.81
2022-11-13T02:08:14.810Z,97999.16
2022-11-13T02:10:41.130Z,97994.22
2022-11-13T02:13:07.499Z,97992.56
2022-11-13T02:15:34.755Z,97988.31
2022-11-13T02:18:02.767Z,97984.28
2022-11-13T02:20:52.109Z,97973.63
2022-11-13T02:23:41.806Z,97972.78
2022-11-13T02:26:09.639Z,97970.94
2022-11-13T02:28:36.270Z,97961.09
2022-11-13T02:31:10.455Z,97957.78
2022-11-13T02:33:36.899Z,97961.28
2022-11-13T02:36:04.684Z,97955.69
2022-11-13T02:38:32.172Z,97956.03
2022-11-13T02:40:58.679Z,97942.75
2022-11-13T02:43:24.982Z,97944.59
2022-11-13T02:45:52.555Z,97952.09
2022-11-13T02:48:18.877Z,97943.59
2022-11-13T02:50:45.562Z,97942.59
2022-11-13T02:53:11.888Z,97936.34
2022-11-13T02:55:38.274Z,97937.91
2022-11-13T02:58:04.695Z,97933.25
2022-11-13T03:00:32.984Z,97929.81
2022-11-13T03:02:59.397Z,97933.72
2022-11-13T03:05:25.720Z,97936.06
2022-11-13T03:07:52.052Z,97924.88
2022-11-13T03:10:18.431Z,97926.00
2022-11-13T03:12:44.738Z,97917.63
2022-11-13T03:15:11.096Z,97922.41
2022-11-13T03:17:37.473Z,97912.72
2022-11-13T03:20:04.717Z,97922.00
2022-11-13T03:22:31.252Z,97915.72
2022-11-13T03:24:57.706Z,97915.72
2022-11-13T03:27:24.135Z,97909.47
2022-11-13T03:29:50.626Z,97908.53
2022-11-13T03:32:16.962Z,97903.38
2022-11-13T03:34:43.396Z,97900.34
2022-11-13T03:37:09.718Z,97890.16
2022-11-13T03:39:36.035Z,97898.78
2022-11-13T03:42:02.431Z,97901.03
2022-11-13T03:44:28.837Z,97902.13
2022-11-13T03:46:55.194Z,97894.53
2022-11-13T03:49:21.513Z,97897.34
2022-11-13T03:51:47.835Z,97895.63
2022-11-13T03:54:14.280Z,97893.53
2022-11-13T03:56:40.623Z,97892.13
2022-11-13T03:59:07.175Z,97891.47
2022-11-13T04:01:33.528Z,97886.78
2022-11-13T04:04:00.098Z,97887.44
2022-11-13T04:06:26.417Z,97885.78
2022-11-13T04:08:53.980Z,97879.38
2022-11-13T04:11:20.325Z,97872.28
2022-11-13T04:13:46.721Z,97871.84
2022-11-13T04:16:13.023Z,97866.69
2022-11-13T04:18:39.343Z,97862.50
2022-11-13T04:21:05.802Z,97854.84
2022-11-13T04:23:32.267Z,97853.59
2022-11-13T04:25:58.674Z,97857.56
2022-11-13T04:28:25.107Z,97861.66
2022-11-13T04:30:53.699Z,97850.22
2022-11-13T04:33:20.434Z,97845.56
2022-11-13T04:35:46.823Z,97849.09
2022-11-13T04:38:13.162Z,97847.16
2022-11-13T04:40:39.978Z,97844.41
2022-11-13T04:43:06.313Z,97848.25
2022-11-13T04:45:33.061Z,97848.34
2022-11-13T04:47:59.395Z,97848.94
2022-11-13T04:50:25.973Z,97847.00
2022-11-13T04:52:52.510Z,97841.84
2022-11-13T04:55:19.040Z,97844.00
2022-11-13T04:57:45.447Z,97849.34
2022-11-13T05:00:12.473Z,97848.84
2022-11-13T05:02:38.793Z,97845.50
2022-11-13T05:05:05.739Z,97834.84
2022-11-13T05:07:32.230Z,97832.66
2022-11-13T05:09:58.555Z,97829.69
2022-11-13T05:12:24.898Z,97831.75
2022-11-13T05:14:51.260Z,97831.56
2022-11-13T05:17:17.631Z,97826.97
2022-11-13T05:19:43.952Z,97818.34
2022-11-13T05:22:10.484Z,97811.06
2022-11-13T05:24:36.884Z,97812.81
2022-11-13T05:27:03.212Z,97807.41
2022-11-13T05:29:29.558Z,97805.16
2022-11-13T05:31:55.898Z,97802.06
2022-11-13T05:34:22.278Z,97806.88
2022-11-13T05:36:48.703Z,97809.66
2022-11-13T05:39:15.107Z,97805.81
2022-11-13T05:41:41.589Z,97804.81
2022-11-13T05:44:07.906Z,97804.66
2022-11-13T05:46:35.254Z,97796.16
2022-11-13T05:49:01.896Z,97800.97
2022-11-13T05:51:29.333Z,97803.41
2022-11-13T05:53:56.164Z,97797.81
2022-11-13T05:56:24.051Z,97787.91
2022-11-13T05:58:51.059Z,97797.56
2022-11-13T06:01:17.347Z,97792.31
2022-11-13T06:03:44.346Z,97792.56
2022-11-13T06:06:11.919Z,97791.22
2022-11-13T06:08:38.866Z,97793.88
2022-11-13T06:11:09.756Z,97776.97
2022-11-13T06:13:36.341Z,97780.66
2022-11-13T06:16:07.276Z,97778.38
2022-11-13T06:18:34.096Z,97775.88
2022-11-13T06:21:01.469Z,97779.66
2022-11-13T06:23:28.951Z,97784.16
2022-11-13T06:26:00.418Z,97785.91
2022-11-13T06:28:27.220Z,97788.47
2022-11-13T06:30:53.977Z,97776.22
2022-11-13T06:33:20.308Z,97778.00
2022-11-13T06:35:46.720Z,97781.16
2022-11-13T06:38:13.695Z,97788.63
2022-11-13T06:40:40.080Z,97794.47
2022-11-13T06:43:06.514Z,97791.22
2022-11-13T06:45:32.894Z,97793.28
2022-11-13T06:47:59.219Z,97792.03
2022-11-13T06:50:25.574Z,97770.78
2022-11-13T06:52:51.877Z,97773.69
2022-11-13T06:55:18.181Z,97770.03
2022-11-13T06:57:44.497Z,97760.31
2022-11-13T07:00:11.533Z,97753.03
2022-11-13T07:02:37.844Z,97753.25
2022-11-13T07:05:04.280Z,97747.28
2022-11-13T07:07:30.635Z,97750.22
2022-11-13T07:09:57.008Z,97747.38
2022-11-13T07:12:23.353Z,97749.03
2022-11-13T07:14:49.664Z,97753.91
2022-11-13T07:17:16.203Z,97745.53
2022-11-13T07:19:42.630Z,97750.69
2022-11-13T07:22:08.991Z,97751.41
2022-11-13T07:24:35.352Z,97753.75
2022-11-13T07:27:01.668Z,97747.50
2022-11-13T07:29:28.053Z,97742.59
2022-11-13T07:31:54.504Z,97727.41
2022-11-13T07:34:22.195Z,97716.50
2022-11-13T07:36:48.491Z,97716.13
2022-11-13T07:39:14.919Z,97714.97
2022-11-13T07:41:41.249Z,97715.75
2022-11-13T07:44:09.422Z,97705.50
2022-11-13T07:46:36.323Z,97709.78
2022-11-13T07:49:02.744Z,97693.53
2022-11-13T07:51:29.080Z,97694.16
2022-11-13T07:53:55.442Z,97693.63
2022-11-13T07:56:23.417Z,97699.22
2022-11-13T07:58:50.056Z,97693.00
2022-11-13T08:01:16.610Z,97689.16
2022-11-13T08:03:43.053Z,97682.13
2022-11-13T08:06:09.456Z,97673.53
2022-11-13T08:08:37.574Z,97672.34
2022-11-13T08:11:07.773Z,97668.22
2022-11-13T08:13:34.791Z,97670.00
2022-11-13T08:16:01.926Z,97661.69
2022-11-13T08:18:31.147Z,97655.97
2022-11-13T08:20:57.718Z,97652.19
2022-11-13T08:23:24.221Z,97650.63
2022-11-13T08:25:51.678Z,97646.06
2022-11-13T08:28:18.047Z,97642.31
2022-11-13T08:30:46.010Z,97632.00
2022-11-13T08:33:13.370Z,97640.34
2022-11-13T08:35:40.773Z,97643.16
2022-11-13T08:38:08.267Z,97631.84
2022-11-13T08:40:35.513Z,97618.53
2022-11-13T08:43:02.939Z,97629.00
2022-11-13T08:45:34.380Z,97607.41
2022-11-13T08:48:01.691Z,97608.53
2022-11-13T08:50:28.982Z,97613.75
2022-11-13T08:52:57.042Z,97619.38
2022-11-13T08:55:23.628Z,97617.16
2022-11-13T08:57:50.776Z,97612.94
2022-11-13T09:00:31.399Z,97610.41
2022-11-13T09:03:00.438Z,97600.78
2022-11-13T09:05:26.956Z,97610.31
2022-11-13T09:07:57.600Z,97605.59
2022-11-13T09:10:24.584Z,97605.47
2022-11-13T09:13:01.961Z,97612.66
2022-11-13T09:15:36.938Z,97606.00
2022-11-13T09:18:03.738Z,97596.72
2022-11-13T09:20:30.841Z,97591.88
2022-11-13T09:23:05.695Z,97590.28
2022-11-13T09:25:38.412Z,97602.72
2022-11-13T09:28:07.204Z,97596.47
2022-11-13T09:30:34.851Z,97593.16
2022-11-13T09:33:02.451Z,97596.03
2022-11-13T09:35:36.017Z,97609.97
2022-11-13T09:38:11.396Z,97603.59
2022-11-13T09:40:38.116Z,97597.50
2022-11-13T09:43:20.592Z,97595.63
2022-11-13T09:45:47.357Z,97605.69
2022-11-13T09:48:31.091Z,97609.81
2022-11-13T09:51:00.280Z,97602.47
2022-11-13T09:53:27.880Z,97601.00
2022-11-13T09:56:13.060Z,97597.91
2022-11-13T09:58:51.889Z,97595.03
2022-11-13T10:01:37.129Z,97580.66
2022-11-13T10:04:11.980Z,97592.94
2022-11-13T10:06:43.594Z,97591.03
2022-11-13T10:09:22.616Z,97582.22
2022-11-13T10:11:50.999Z,97586.72
2022-11-13T10:14:19.369Z,97592.28
2022-11-13T10:16:49.329Z,97577.88
2022-11-13T10:19:34.627Z,97567.69
2022-11-13T10:22:32.969Z,97571.75
2022-11-13T10:25:10.275Z,97562.22
2022-11-13T10:27:37.321Z,97555.75
2022-11-13T10:30:04.208Z,97538.00
2022-11-13T10:32:31.760Z,97538.59
2022-11-13T10:35:00.229Z,97539.75
2022-11-13T10:37:50.396Z,97546.97
2022-11-13T10:40:36.795Z,97531.47
2022-11-13T10:43:19.213Z,97530.84
2022-11-13T10:46:00.354Z,97522.44
2022-11-13T10:48:27.049Z,97525.41
2022-11-13T10:50:55.398Z,97521.00
2022-11-13T10:53:21.770Z,97523.16
2022-11-13T10:55:52.154Z,97512.94
2022-11-13T10:58:19.332Z,97508.22
2022-11-13T11:00:49.083Z,97509.41
2022-11-13T11:03:18.750Z,97512.22
2022-11-13T11:05:52.364Z,97516.59
2022-11-13T11:08:21.232Z,97524.63
2022-11-13T11:11:15.350Z,97520.34
2022-11-13T11:13:41.723Z,97521.72
2022-11-13T11:16:08.625Z,97529.75
2022-11-13T11:18:36.084Z,97522.78
2022-11-13T11:21:07.078Z,97507.25
2022-11-13T11:23:55.582Z,97521.41
2022-11-13T11:26:35.596Z,97504.59
2022-11-13T11:29:01.963Z,97496.34
2022-11-13T11:31:37.554Z,97502.06
2022-11-13T11:34:15.386Z,97484.81
2022-11-13T11:36:47.941Z,97478.25
2022-11-13T11:39:26.897Z,97474.44
2022-11-13T11:41:58.407Z,97469.47
2022-11-13T11:44:31.982Z,97448.22
2022-11-13T11:46:58.463Z,97450.56
2022-11-13T11:49:26.179Z,97443.25
2022-11-13T11:52:06.895Z,97432.00
2022-11-13T11:54:41.950Z,97440.72
2022-11-13T11:57:14.417Z,97437.47
2022-11-13T11:59:46.687Z,97433.16
2022-11-13T12:02:32.075Z,97421.75
2022-11-13T12:05:03.573Z,97412.31
2022-11-13T12:07:41.727Z,97407.81
2022-11-13T12:10:15.066Z,97408.78
2022-11-13T12:13:01.076Z,97405.25
2022-11-13T12:15:27.492Z,97409.00
2022-11-13T12:18:13.969Z,97403.78
2022-11-13T12:20:49.504Z,97402.03
2022-11-13T12:23:28.142Z,97410.97
2022-11-13T12:25:59.799Z,97407.09
2022-11-13T12:28:27.332Z,97390.06
2022-11-13T12:31:12.719Z,97394.28
2022-11-13T12:33:40.164Z,97401.19
2022-11-13T12:36:09.255Z,97393.31
2022-11-13T12:38:35.705Z,97395.59
2022-11-13T12:41:13.828Z,97391.69
2022-11-13T12:43:55.964Z,97405.66
2022-11-13T12:46:32.597Z,97394.28
2022-11-13T12:49:01.059Z,97389.50
2022-11-13T12:51:37.551Z,97388.72
2022-11-13T12:54:05.071Z,97383.75
2022-11-13T12:56:33.847Z,97382.91
2022-11-13T12:59:29.332Z,97387.44
2022-11-13T13:02:19.879Z,97384.97
2022-11-13T13:05:01.433Z,97387.25
2022-11-13T13:07:42.993Z,97380.69
2022-11-13T13:10:15.579Z,97375.94
2022-11-13T13:13:01.678Z,97383.97
2022-11-13T13:15:31.815Z,97373.47
2022-11-13T13:18:25.261Z,97384.59
2022-11-13T13:20:57.565Z,97395.13
2022-11-13T13:23:28.700Z,97387.22
2022-11-13T13:26:13.373Z,97384.41
2022-11-13T13:28:41.895Z,97384.56
2022-11-13T13:31:27.153Z,97384.75
2022-11-13T13:34:05.858Z,97389.34
2022-11-13T13:36:40.240Z,97398.41
2022-11-13T13:39:15.521Z,97395.69
2022-11-13T13:41:48.582Z,97389.38
2022-11-13T13:44:30.288Z,97385.56
2022-11-13T13:46:57.266Z,97384.84
2022-11-13T13:49:24.714Z,97386.53
2022-11-13T13:51:52.975Z,97386.94
2022-11-13T13:54:23.694Z,97378.91
2022-11-13T13:56:50.177Z,97383.13
2022-11-13T13:59:22.593Z,97378.63
2022-11-13T14:01:56.279Z,97376.97
2022-11-13T14:04:23.449Z,97375.06
2022-11-13T14:06:51.762Z,97373.16
2022-11-13T14:09:21.195Z,97370.47
2022-11-13T14:11:50.657Z,97370.94
2022-11-13T14:14:21.105Z,97373.34
2022-11-13T14:16:48.313Z,97383.06
2022-11-13T14:19:14.821Z,97381.50
2022-11-13T14:21:43.212Z,97380.38
2022-11-13T14:24:14.717Z,97377.50
2022-11-13T14:26:41.295Z,97373.38
2022-11-13T14:29:21.248Z,97369.06
2022-11-13T14:31:47.892Z,97355.97
2022-11-13T14:34:16.864Z,97352.38
2022-11-13T14:36:45.661Z,97366.66
2022-11-13T14:39:24.034Z,97357.72
2022-11-13T14:41:53.554Z,97350.88
2022-11-13T14:44:30.898Z,97346.28
2022-11-13T14:47:06.198Z,97338.78
2022-11-13T14:49:34.331Z,97338.75
2022-11-13T14:52:01.344Z,97343.53
2022-11-13T14:54:53.184Z,97348.91
2022-11-13T14:57:18.390Z,97352.31
2022-11-13T14:59:44.805Z,97361.19
2022-11-13T15:02:15.256Z,97371.53
2022-11-13T15:04:41.618Z,97371.94
2022-11-13T15:07:24.550Z,97364.38
2022-11-13T15:09:51.051Z,97382.63
2022-11-13T15:12:17.400Z,97378.66
2022-11-13T15:14:43.771Z,97374.00
2022-11-13T15:17:14.874Z,97369.41
2022-11-13T15:19:41.311Z,97379.00
2022-11-13T15:22:26.727Z,97378.94
2022-11-13T15:24:54.165Z,97368.91
2022-11-13T15:27:21.626Z,97367.22
2022-11-13T15:29:47.972Z,97365.44
2022-11-13T15:32:15.859Z,97365.13
2022-11-13T15:34:42.371Z,97359.63
2022-11-13T15:37:12.883Z,97360.09
2022-11-13T15:39:40.340Z,97349.00
2022-11-13T15:42:12.235Z,97350.19
2022-11-13T15:44:39.029Z,97353.13
2022-11-13T15:47:15.843Z,97343.59
2022-11-13T15:49:51.447Z,97347.19
2022-11-13T15:52:31.963Z,97336.03
2022-11-13T15:54:58.880Z,97343.94
2022-11-13T15:57:26.950Z,97339.88
2022-11-13T15:59:53.452Z,97348.31
2022-11-13T16:02:19.910Z,97345.72
2022-11-13T16:04:55.987Z,97351.75
2022-11-13T16:07:26.402Z,97340.34
2022-11-13T16:09:52.781Z,97334.28
2022-11-13T16:12:19.158Z,97340.34
2022-11-13T16:14:45.470Z,97353.03
2022-11-13T16:17:20.303Z,97350.13
2022-11-13T16:19:52.469Z,97353.28
2022-11-13T16:22:20.380Z,97352.31
2022-11-13T16:24:46.966Z,97355.31
2022-11-13T16:27:14.655Z,97362.25
2022-11-13T16:29:41.091Z,97351.44
2022-11-13T16:32:13.432Z,97367.91
2022-11-13T16:34:39.757Z,97365.63
2022-11-13T16:37:09.595Z,97364.66
2022-11-13T16:39:35.990Z,97361.53
2022-11-13T16:42:02.443Z,97355.56
2022-11-13T16:44:29.879Z,97344.47
2022-11-13T16:46:57.219Z,97343.44
2022-11-13T16:49:23.631Z,97346.03
2022-11-13T16:51:51.563Z,97342.41
2022-11-13T16:54:19.934Z,97331.03
2022-11-13T16:56:48.290Z,97320.56
2022-11-13T16:59:15.709Z,97320.63
2022-11-13T17:01:42.061Z,97320.25
2022-11-13T17:04:10.756Z,97328.50
2022-11-13T17:06:40.275Z,97310.75
2022-11-13T17:09:06.771Z,97316.41
2022-11-13T17:11:33.492Z,97306.59
2022-11-13T17:14:01.300Z,97312.44
2022-11-13T17:16:28.665Z,97315.72
2022-11-13T17:18:55.062Z,97318.78
2022-11-13T17:21:23.629Z,97313.25
2022-11-13T17:24:01.432Z,97319.97
2022-11-13T17:26:28.436Z,97310.28
2022-11-13T17:28:54.839Z,97310.75
2022-11-13T17:31:21.848Z,97309.84
2022-11-13T17:33:51.790Z,97309.56
2022-11-13T17:36:18.135Z,97314.84
2022-11-13T17:38:44.470Z,97319.19
2022-11-13T17:41:15.254Z,97317.44
2022-11-13T17:43:42.423Z,97310.94
2022-11-13T17:46:10.809Z,97306.28
2022-11-13T17:48:37.709Z,97300.22
2022-11-13T17:51:05.355Z,97296.34
2022-11-13T17:53:33.026Z,97298.94
2022-11-13T17:56:07.127Z,97295.31
2022-11-13T17:58:51.892Z,97298.94
2022-11-13T18:01:19.817Z,97292.94
2022-11-13T18:03:48.722Z,97289.88
2022-11-13T18:06:19.554Z,97275.69
2022-11-13T18:08:46.816Z,97283.31
2022-11-13T18:11:15.755Z,97283.06
2022-11-13T18:13:42.692Z,97281.22
2022-11-13T18:16:10.556Z,97276.41
2022-11-13T18:18:38.935Z,97271.66
2022-11-13T18:21:22.499Z,97265.81
2022-11-13T18:23:49.697Z,97273.19
2022-11-13T18:26:23.111Z,97265.81
2022-11-13T18:28:49.545Z,97266.06
2022-11-13T18:31:17.681Z,97262.13
2022-11-13T18:33:44.393Z,97259.00
2022-11-13T18:36:12.909Z,97257.47
2022-11-13T18:38:39.627Z,97251.69
2022-11-13T18:41:09.943Z,97256.84
2022-11-13T18:43:38.745Z,97251.81
2022-11-13T18:46:07.361Z,97245.84
2022-11-13T18:48:35.773Z,97250.50
2022-11-13T18:51:03.659Z,97246.69
2022-11-13T18:53:30.755Z,97246.41
2022-11-13T18:56:01.004Z,97242.94
2022-11-13T18:58:28.855Z,97240.53
2022-11-13T19:00:56.081Z,97240.56
2022-11-13T19:03:23.626Z,97236.78
2022-11-13T19:05:50.363Z,97236.22
2022-11-13T19:08:16.852Z,97234.25
2022-11-13T19:10:43.305Z,97237.94
2022-11-13T19:13:09.751Z,97231.88
2022-11-13T19:15:37.410Z,97233.69
2022-11-13T19:18:05.871Z,97238.56
2022-11-13T19:20:32.206Z,97227.50
2022-11-13T19:22:58.515Z,97224.13
2022-11-13T19:25:24.975Z,97224.97
2022-11-13T19:27:54.061Z,97228.06
2022-11-13T19:30:21.463Z,97232.00
2022-11-13T19:32:47.847Z,97230.13
2022-11-13T19:35:14.314Z,97232.28
2022-11-13T19:37:40.691Z,97234.03
2022-11-13T19:40:07.470Z,97221.03
2022-11-13T19:42:36.117Z,97229.41
2022-11-13T19:45:05.968Z,97222.44
2022-11-13T19:47:33.335Z,97221.97
2022-11-13T19:49:59.695Z,97219.00
2022-11-13T19:52:26.220Z,97217.84
2022-11-13T19:54:53.940Z,97210.16
2022-11-13T19:57:20.266Z,97214.63
2022-11-13T19:59:47.707Z,97207.31
2022-11-13T20:02:14.419Z,97209.22
2022-11-13T20:04:40.773Z,97214.94
2022-11-13T20:07:07.288Z,97211.13
2022-11-13T20:09:33.653Z,97209.94
2022-11-13T20:12:00.196Z,97221.16
2022-11-13T20:14:26.551Z,97214.88
2022-11-13T20:16:52.952Z,97222.94
2022-11-13T20:19:19.552Z,97214.19
2022-11-13T20:21:46.022Z,97220.56
2022-11-13T20:24:12.366Z,97217.03
2022-11-13T20:26:38.757Z,97220.25
2022-11-13T20:29:05.128Z,97227.09
2022-11-13T20:31:31.527Z,97220.16
2022-11-13T20:33:57.866Z,97222.06
2022-11-13T20:36:24.378Z,97225.88
2022-11-13T20:38:52.046Z,97234.63
2022-11-13T20:41:20.693Z,97221.84
2022-11-13T20:43:51.021Z,97233.34
2022-11-13T20:46:18.379Z,97220.38
2022-11-13T20:48:46.148Z,97221.47
2022-11-13T20:51:12.457Z,97223.22
2022-11-13T20:53:39.319Z,97219.78
2022-11-13T20:56:05.823Z,97226.09
2022-11-13T20:58:32.550Z,97219.09
2022-11-13T21:01:04.114Z,97219.59
2022-11-13T21:03:30.810Z,97216.28
2022-11-13T21:05:57.162Z,97208.47
2022-11-13T21:08:23.552Z,97198.66
2022-11-13T21:10:49.877Z,97208.59
2022-11-13T21:13:16.726Z,97207.28
2022-11-13T21:15:43.044Z,97198.81
2022-11-13T21:18:11.662Z,97200.91
2022-11-13T21:20:38.043Z,97196.38
2022-11-13T21:23:06.254Z,97194.28
2022-11-13T21:25:32.683Z,97186.91
2022-11-13T21:28:01.130Z,97184.16
2022-11-13T21:30:27.493Z,97177.44
2022-11-13T21:32:59.967Z,97179.34
2022-11-13T21:35:27.155Z,97180.19
2022-11-13T21:37:53.982Z,97169.91
2022-11-13T21:40:20.671Z,97166.91
2022-11-13T21:42:47.114Z,97157.41
2022-11-13T21:45:13.629Z,97165.22
2022-11-13T21:47:39.947Z,97163.69
2022-11-13T21:50:06.516Z,97159.09
2022-11-13T21:52:32.849Z,97147.84
2022-11-13T21:54:59.169Z,97161.41
2022-11-13T21:57:27.065Z,97144.88
2022-11-13T21:59:53.412Z,97148.59
2022-11-13T22:02:19.752Z,97147.09
2022-11-13T22:04:46.304Z,97143.91
2022-11-13T22:07:12.666Z,97139.47
2022-11-13T22:09:39.043Z,97142.53
2022-11-13T22:12:05.376Z,97135.16
2022-11-13T22:14:31.699Z,97134.38
2022-11-13T22:16:58.015Z,97128.06
2022-11-13T22:19:28.375Z,97128.94
2022-11-13T22:21:55.665Z,97138.19
2022-11-13T22:24:22.005Z,97126.97
2022-11-13T22:26:48.544Z,97121.25
2022-11-13T22:29:15.074Z,97122.56
2022-11-13T22:31:41.436Z,97127.13
2022-11-13T22:34:08.809Z,97122.41
2022-11-13T22:36:36.601Z,97123.50
2022-11-13T22:39:05.244Z,97121.16
2022-11-13T22:41:33.410Z,97125.56
2022-11-13T22:44:11.799Z,97126.03
2022-11-13T22:46:38.350Z,97119.13
2022-11-13T22:49:07.143Z,97116.25
2022-11-13T22:51:37.305Z,97122.16
2022-11-13T22:54:07.757Z,97112.06
2022-11-13T22:56:34.782Z,97110.44
2022-11-13T22:59:02.018Z,97112.44
2022-11-13T23:01:29.491Z,97108.19
2022-11-13T23:03:59.860Z,97104.63
2022-11-13T23:06:27.981Z,97100.47
2022-11-13T23:08:54.719Z,97097.09
2022-11-13T23:11:27.990Z,97093.59
2022-11-13T23:13:55.669Z,97091.13
2022-11-13T23:16:22.874Z,97086.03
2022-11-13T23:18:51.977Z,97085.72
2022-11-13T23:21:18.518Z,97081.50
2022-11-13T23:23:51.159Z,97067.50
2022-11-13T23:26:17.903Z,97069.31
2022-11-13T23:28:44.742Z,97061.63
2022-11-13T23:31:11.097Z,97060.81
2022-11-13T23:33:38.247Z,97061.63
2022-11-13T23:36:05.834Z,97057.63
2022-11-13T23:38:32.284Z,97054.09
2022-11-13T23:40:59.832Z,97066.41
2022-11-13T23:43:47.769Z,97065.06
2022-11-13T23:46:13.309Z,97059.72
2022-11-13T23:48:40.272Z,97061.97
2022-11-13T23:51:06.803Z,97056.75
2022-11-13T23:53:35.299Z,97061.53
2022-11-13T23:56:01.672Z,97066.19
2022-11-13T23:58:32.343Z,97066.63
